Time;durP1;ratioP1;P1;durP2;ratioP2;P2;SDS_P1;SDS_P2;PMS_P1;PMS_P2;Temp;Humidity;BMP_temperature;BMP_pressure;BME280_temperature;BME280_humidity;BME280_pressure;Samples;Min_cycle;Max_cycle;Signal;HPM_P1;HPM_P2
2023/04/25 00:00:18;;;;;;;;;;;14.60;67.50;;;;;;4991977;28;89515;-41
2023/04/25 00:02:43;;;;;;;;;;;14.60;67.50;;;;;;4990505;28;87148;-42
2023/04/25 00:05:09;;;;;;;;;;;14.60;67.50;;;;;;4990778;28;87711;-42
2023/04/25 00:07:35;;;;;;;;;;;14.60;67.50;;;;;;4991418;28;89510;-41
2023/04/25 00:10:00;;;;;;;;;;;14.60;67.40;;;;;;4989800;28;87148;-42
2023/04/25 00:12:28;;;;;;;;;;;14.50;67.50;;;;;;4993096;28;87600;-41
2023/04/25 00:14:56;;;;;;;;;;;14.60;67.50;;;;;;4989294;28;87982;-42
2023/04/25 00:17:24;;;;;;;;;;;14.50;67.40;;;;;;4994091;28;87208;-42
2023/04/25 00:19:50;;;;;;;;;;;14.50;67.40;;;;;;4990571;28;90651;-41
2023/04/25 00:22:16;;;;;;;;;;;14.50;67.50;;;;;;4989494;28;87041;-42
2023/04/25 00:24:41;;;;;;;;;;;14.50;67.50;;;;;;4992519;28;87915;-41
2023/04/25 00:27:07;;;;;;;;;;;14.50;67.50;;;;;;4989460;28;89012;-41
2023/04/25 00:29:33;;;;;;;;;;;14.50;67.60;;;;;;4991888;28;87100;-42
2023/04/25 00:31:58;;;;;;;;;;;14.50;67.60;;;;;;4993794;28;89004;-42
2023/04/25 00:34:24;;;;;;;;;;;14.40;67.60;;;;;;4993264;28;87996;-42
2023/04/25 00:36:50;;;;;;;;;;;14.40;67.60;;;;;;4995987;28;86052;-41
2023/04/25 00:39:15;;;;;;;;;;;14.40;67.50;;;;;;4994571;28;88223;-41
2023/04/25 00:41:40;;;;;;;;;;;14.40;67.60;;;;;;4995724;28;87689;-41
2023/04/25 00:44:08;;;;;;;;;;;14.40;67.50;;;;;;4992843;28;87992;-41
2023/04/25 00:46:34;;;;;;;;;;;14.40;67.60;;;;;;4993986;28;89438;-41
2023/04/25 00:49:00;;;;;;;;;;;14.40;67.50;;;;;;4994438;28;87113;-41
2023/04/25 00:51:26;;;;;;;;;;;14.40;67.50;;;;;;4992644;28;88779;-41
2023/04/25 00:53:51;;;;;;;;;;;14.40;67.60;;;;;;4995281;28;88202;-41
2023/04/25 00:56:17;;;;;;;;;;;14.40;67.60;;;;;;4992729;28;87159;-41
2023/04/25 00:58:43;;;;;;;;;;;14.40;67.60;;;;;;4993358;28;88970;-41
2023/04/25 01:01:09;;;;;;;;;;;14.40;68.10;;;;;;4997055;28;86754;-41
2023/04/25 01:03:40;;;;;;;;;;;14.40;67.60;;;;;;4993370;28;88087;-41
2023/04/25 01:06:09;;;;;;;;;;;14.30;67.60;;;;;;4994892;28;88539;-41
2023/04/25 01:08:35;;;;;;;;;;;14.30;67.60;;;;;;4991936;28;88220;-41
2023/04/25 01:11:01;;;;;;;;;;;14.30;67.70;;;;;;4993729;28;89638;-42
2023/04/25 01:13:26;;;;;;;;;;;14.30;67.80;;;;;;4993909;28;88004;-41
2023/04/25 01:15:52;;;;;;;;;;;14.30;67.70;;;;;;4992160;28;87198;-41
2023/04/25 01:18:18;;;;;;;;;;;14.30;68.30;;;;;;4995088;28;88747;-41
2023/04/25 01:20:45;;;;;;;;;;;14.20;67.60;;;;;;4991502;28;89808;-41
2023/04/25 01:23:10;;;;;;;;;;;14.20;67.60;;;;;;4997080;28;87188;-41
2023/04/25 01:25:36;;;;;;;;;;;14.20;67.70;;;;;;4993020;28;88908;-41
2023/04/25 01:28:02;;;;;;;;;;;14.20;67.70;;;;;;4993081;28;87096;-41
2023/04/25 01:30:27;;;;;;;;;;;14.20;67.80;;;;;;4994278;28;88942;-41
2023/04/25 01:32:56;;;;;;;;;;;14.20;67.70;;;;;;4990570;28;90433;-41
2023/04/25 01:35:23;;;;;;;;;;;14.20;67.70;;;;;;4992044;28;87597;-41
2023/04/25 01:37:49;;;;;;;;;;;14.20;67.70;;;;;;4993321;28;88664;-41
2023/04/25 01:40:14;;;;;;;;;;;14.20;67.70;;;;;;4990407;28;89327;-41
2023/04/25 01:42:41;;;;;;;;;;;14.20;67.80;;;;;;4996187;28;87191;-41
2023/04/25 01:45:07;;;;;;;;;;;14.20;67.70;;;;;;4991245;28;89194;-42
2023/04/25 01:47:34;;;;;;;;;;;14.10;67.70;;;;;;4994718;28;87613;-41
2023/04/25 01:50:00;;;;;;;;;;;14.20;67.70;;;;;;4992253;28;89028;-41
2023/04/25 01:52:26;;;;;;;;;;;14.20;67.70;;;;;;4992628;28;87891;-42
2023/04/25 01:54:52;;;;;;;;;;;14.10;67.80;;;;;;4993256;28;87151;-41
2023/04/25 01:57:17;;;;;;;;;;;14.10;67.70;;;;;;4991547;28;88696;-48
2023/04/25 01:59:43;;;;;;;;;;;14.10;67.80;;;;;;4993867;28;89693;-41
2023/04/25 02:02:09;;;;;;;;;;;14.10;67.80;;;;;;4991052;28;87255;-41
2023/04/25 02:04:35;;;;;;;;;;;14.10;67.80;;;;;;4996425;28;89066;-41
2023/04/25 02:07:00;;;;;;;;;;;14.00;67.80;;;;;;4992386;28;87039;-41
2023/04/25 02:09:26;;;;;;;;;;;14.00;67.80;;;;;;4992241;28;89278;-41
2023/04/25 02:11:52;;;;;;;;;;;14.00;67.80;;;;;;4992699;28;89902;-41
2023/04/25 02:14:17;;;;;;;;;;;14.00;67.80;;;;;;4991130;28;86366;-41
2023/04/25 02:16:43;;;;;;;;;;;14.00;67.90;;;;;;4994310;28;88180;-41
2023/04/25 02:19:09;;;;;;;;;;;14.00;67.80;;;;;;4990419;28;89317;-41
2023/04/25 02:21:35;;;;;;;;;;;14.00;67.90;;;;;;4992493;28;88323;-41
2023/04/25 02:24:01;;;;;;;;;;;13.90;67.80;;;;;;4992364;28;89566;-41
2023/04/25 02:26:26;;;;;;;;;;;14.00;67.90;;;;;;4994572;28;88196;-41
2023/04/25 02:28:52;;;;;;;;;;;14.00;67.90;;;;;;4993533;28;88213;-41
2023/04/25 02:31:17;;;;;;;;;;;13.90;67.90;;;;;;4989932;28;89453;-41
2023/04/25 02:33:43;;;;;;;;;;;14.00;68.00;;;;;;4993988;28;87188;-41
2023/04/25 02:36:09;;;;;;;;;;;13.90;67.90;;;;;;4991338;28;87890;-41
2023/04/25 02:38:35;;;;;;;;;;;13.90;68.00;;;;;;4991852;28;88465;-41
2023/04/25 02:41:00;;;;;;;;;;;13.90;68.00;;;;;;4992470;28;87132;-41
2023/04/25 02:43:26;;;;;;;;;;;13.90;68.00;;;;;;4990822;28;89202;-41
2023/04/25 02:45:51;;;;;;;;;;;13.90;68.10;;;;;;4993008;28;89126;-41
2023/04/25 02:48:17;;;;;;;;;;;13.90;68.10;;;;;;4993057;28;87122;-41
2023/04/25 02:50:43;;;;;;;;;;;13.80;68.10;;;;;;4993036;28;88087;-41
2023/04/25 02:53:08;;;;;;;;;;;13.80;68.10;;;;;;4991506;28;87314;-41
2023/04/25 02:55:53;;;;;;;;;;;13.80;68.00;;;;;;4990645;28;88758;-41
2023/04/25 02:58:18;;;;;;;;;;;13.80;68.10;;;;;;4991424;28;87114;-41
2023/04/25 03:00:44;;;;;;;;;;;13.80;68.10;;;;;;4991381;28;87082;-41
2023/04/25 03:03:10;;;;;;;;;;;13.80;68.10;;;;;;4993338;28;88982;-41
2023/04/25 03:05:36;;;;;;;;;;;13.80;68.20;;;;;;4990209;28;89670;-41
2023/04/25 03:08:01;;;;;;;;;;;13.80;68.10;;;;;;4993530;28;87147;-41
2023/04/25 03:10:27;;;;;;;;;;;13.80;68.20;;;;;;4992791;28;87984;-41
2023/04/25 03:12:52;;;;;;;;;;;13.80;68.20;;;;;;4992439;28;87493;-41
2023/04/25 03:15:18;;;;;;;;;;;13.80;68.20;;;;;;4990934;28;88758;-41
2023/04/25 03:17:43;;;;;;;;;;;13.70;68.80;;;;;;4991240;28;87214;-41
2023/04/25 03:20:09;;;;;;;;;;;13.70;68.20;;;;;;4992508;28;87078;-41
2023/04/25 03:22:35;;;;;;;;;;;13.70;68.20;;;;;;4990055;28;88681;-41
2023/04/25 03:25:00;;;;;;;;;;;13.70;68.20;;;;;;4992789;28;89686;-41
2023/04/25 03:27:26;;;;;;;;;;;13.70;68.20;;;;;;4990933;28;86399;-41
2023/04/25 03:29:51;;;;;;;;;;;13.70;68.30;;;;;;4991891;28;88298;-41
2023/04/25 03:32:17;;;;;;;;;;;13.70;68.20;;;;;;4994146;28;89704;-41
2023/04/25 03:34:42;;;;;;;;;;;13.60;68.20;;;;;;4990233;28;87977;-41
2023/04/25 03:37:08;;;;;;;;;;;13.70;68.30;;;;;;4992561;28;88231;-41
2023/04/25 03:39:33;;;;;;;;;;;13.70;68.30;;;;;;4989494;28;86999;-41
2023/04/25 03:41:59;;;;;;;;;;;13.60;68.20;;;;;;4992578;28;87417;-41
2023/04/25 03:44:24;;;;;;;;;;;13.60;68.20;;;;;;4990158;28;88925;-41
2023/04/25 03:46:50;;;;;;;;;;;13.70;68.30;;;;;;4991350;28;87322;-42
2023/04/25 03:49:16;;;;;;;;;;;13.60;68.30;;;;;;4991583;28;88477;-41
2023/04/25 03:51:41;;;;;;;;;;;13.60;68.30;;;;;;4992987;28;87406;-41
2023/04/25 03:54:07;;;;;;;;;;;13.60;68.30;;;;;;4992786;28;88038;-40
2023/04/25 03:56:32;;;;;;;;;;;13.60;68.40;;;;;;4989515;28;89471;-41
2023/04/25 03:58:58;;;;;;;;;;;13.60;69.00;;;;;;4991002;28;88277;-41
2023/04/25 04:01:23;;;;;;;;;;;13.60;68.40;;;;;;4991137;28;88420;-41
2023/04/25 04:03:49;;;;;;;;;;;13.60;68.50;;;;;;4990887;28;87971;-41
2023/04/25 04:06:14;;;;;;;;;;;13.50;68.50;;;;;;4993583;28;86965;-41
2023/04/25 04:08:40;;;;;;;;;;;13.50;68.40;;;;;;4993166;28;88044;-41
2023/04/25 04:11:06;;;;;;;;;;;13.50;68.40;;;;;;4995813;28;89661;-41
2023/04/25 04:13:31;;;;;;;;;;;13.50;68.40;;;;;;4996242;28;87171;-41
2023/04/25 04:15:57;;;;;;;;;;;13.60;68.50;;;;;;4994883;28;88663;-41
2023/04/25 04:18:23;;;;;;;;;;;13.50;68.40;;;;;;4993946;28;87093;-41
2023/04/25 04:20:48;;;;;;;;;;;13.60;68.50;;;;;;4993754;28;87410;-41
2023/04/25 04:23:14;;;;;;;;;;;13.50;68.50;;;;;;4994286;28;90572;-40
2023/04/25 04:25:40;;;;;;;;;;;13.50;68.50;;;;;;4992331;28;87490;-41
2023/04/25 04:28:06;;;;;;;;;;;13.50;68.50;;;;;;4995683;28;88824;-41
2023/04/25 04:30:32;;;;;;;;;;;13.50;68.50;;;;;;4993191;28;88416;-41
2023/04/25 04:32:57;;;;;;;;;;;13.50;68.60;;;;;;4993952;28;87180;-41
2023/04/25 04:35:23;;;;;;;;;;;13.50;68.60;;;;;;4996585;28;88938;-40
2023/04/25 04:37:49;;;;;;;;;;;13.40;68.60;;;;;;4992804;28;87665;-41
2023/04/25 04:40:17;;;;;;;;;;;13.50;68.60;;;;;;4995830;28;87561;-41
2023/04/25 04:42:45;;;;;;;;;;;13.40;68.60;;;;;;4992153;28;89436;-41
2023/04/25 04:45:10;;;;;;;;;;;13.40;68.60;;;;;;4993968;28;87488;-41
2023/04/25 04:47:36;;;;;;;;;;;13.40;68.60;;;;;;4993585;28;87911;-41
2023/04/25 04:50:02;;;;;;;;;;;13.40;68.60;;;;;;4992381;28;87989;-40
2023/04/25 04:52:28;;;;;;;;;;;13.40;68.70;;;;;;4995364;28;87158;-40
2023/04/25 04:54:53;;;;;;;;;;;13.40;68.70;;;;;;4991837;28;89168;-41
2023/04/25 04:57:19;;;;;;;;;;;13.40;69.30;;;;;;4997331;28;89308;-41
2023/04/25 04:59:44;;;;;;;;;;;13.30;68.60;;;;;;4993048;28;88791;-41
2023/04/25 05:02:10;;;;;;;;;;;13.40;68.70;;;;;;4993545;28;88036;-41
2023/04/25 05:04:35;;;;;;;;;;;13.40;68.60;;;;;;4994505;28;86381;-41
2023/04/25 05:07:01;;;;;;;;;;;13.40;68.70;;;;;;4992410;28;86996;-41
2023/04/25 05:09:26;;;;;;;;;;;13.40;68.70;;;;;;4994759;28;89639;-40
2023/04/25 05:11:52;;;;;;;;;;;13.40;68.70;;;;;;4991505;28;88064;-41
2023/04/25 05:14:17;;;;;;;;;;;13.40;68.70;;;;;;4993675;28;89606;-41
2023/04/25 05:16:43;;;;;;;;;;;13.30;68.60;;;;;;4991977;28;89391;-41
2023/04/25 05:19:09;;;;;;;;;;;13.30;68.80;;;;;;4995473;28;87115;-41
2023/04/25 05:21:35;;;;;;;;;;;13.30;68.70;;;;;;4993674;28;88663;-41
2023/04/25 05:24:01;;;;;;;;;;;13.30;68.70;;;;;;4991603;28;87724;-40
2023/04/25 05:26:30;;;;;;;;;;;13.30;68.80;;;;;;4991609;28;89179;-41
2023/04/25 05:28:59;;;;;;;;;;;13.30;68.70;;;;;;4993833;28;88404;-41
2023/04/25 05:31:25;;;;;;;;;;;13.30;68.70;;;;;;4992162;28;87287;-41
2023/04/25 05:33:51;;;;;;;;;;;13.30;68.80;;;;;;4991612;28;87313;-40
2023/04/25 05:36:17;;;;;;;;;;;13.30;68.80;;;;;;4993499;28;90485;-41
2023/04/25 05:38:43;;;;;;;;;;;13.30;68.80;;;;;;4991870;28;87095;-41
2023/04/25 05:41:08;;;;;;;;;;;13.30;68.80;;;;;;4996734;28;87393;-40
2023/04/25 05:43:34;;;;;;;;;;;13.30;68.70;;;;;;4992918;28;87024;-40
2023/04/25 05:46:00;;;;;;;;;;;13.30;68.80;;;;;;4992292;28;88993;-41
2023/04/25 05:48:25;;;;;;;;;;;13.30;68.80;;;;;;4993502;28;88093;-41
2023/04/25 05:50:51;;;;;;;;;;;13.30;68.70;;;;;;4991041;28;87478;-41
2023/04/25 05:53:17;;;;;;;;;;;13.20;68.80;;;;;;4995076;28;87274;-41
2023/04/25 05:55:43;;;;;;;;;;;13.30;68.80;;;;;;4991438;28;89557;-41
2023/04/25 05:58:08;;;;;;;;;;;13.30;68.80;;;;;;4993104;28;87125;-41
2023/04/25 06:00:34;;;;;;;;;;;13.30;68.70;;;;;;4994792;28;88001;-41
2023/04/25 06:02:59;;;;;;;;;;;13.30;68.70;;;;;;4991702;28;87143;-40
2023/04/25 06:05:25;;;;;;;;;;;13.30;68.70;;;;;;4993924;28;88823;-41
2023/04/25 06:07:51;;;;;;;;;;;13.30;68.70;;;;;;4990305;28;89216;-41
2023/04/25 06:10:16;;;;;;;;;;;13.30;68.70;;;;;;4994520;28;87483;-40
2023/04/25 06:12:42;;;;;;;;;;;13.30;68.80;;;;;;4993309;28;87747;-41
2023/04/25 06:15:07;;;;;;;;;;;13.30;68.70;;;;;;4991810;28;89218;-41
2023/04/25 06:17:33;;;;;;;;;;;13.30;68.70;;;;;;4992383;28;86376;-41
2023/04/25 06:19:58;;;;;;;;;;;13.30;68.70;;;;;;4993111;28;87349;-41
2023/04/25 06:22:24;;;;;;;;;;;13.30;68.60;;;;;;4993321;28;89005;-41
2023/04/25 06:24:49;;;;;;;;;;;13.30;68.60;;;;;;4993286;28;87944;-41
2023/04/25 06:27:15;;;;;;;;;;;13.30;68.60;;;;;;4991275;28;88237;-41
2023/04/25 06:29:40;;;;;;;;;;;13.30;68.70;;;;;;4992584;28;87106;-41
2023/04/25 06:32:06;;;;;;;;;;;13.30;68.70;;;;;;4992234;28;88713;-41
2023/04/25 06:34:31;;;;;;;;;;;13.30;68.80;;;;;;4991160;28;88466;-40
2023/04/25 06:36:57;;;;;;;;;;;13.30;68.80;;;;;;4993780;28;87184;-40
2023/04/25 06:39:24;;;;;;;;;;;13.20;68.80;;;;;;4990655;28;87391;-40
2023/04/25 06:41:50;;;;;;;;;;;13.20;68.80;;;;;;4993146;28;88526;-40
2023/04/25 06:44:15;;;;;;;;;;;13.30;68.90;;;;;;4994538;28;87131;-41
2023/04/25 06:46:41;;;;;;;;;;;13.20;68.90;;;;;;4991604;28;89865;-41
2023/04/25 06:49:06;;;;;;;;;;;13.30;68.90;;;;;;4992164;28;88414;-40
2023/04/25 06:51:32;;;;;;;;;;;13.20;68.90;;;;;;4991156;28;88393;-40
2023/04/25 06:53:57;;;;;;;;;;;13.30;69.00;;;;;;4992918;28;89363;-41
2023/04/25 06:56:23;;;;;;;;;;;13.20;69.00;;;;;;4990810;28;87106;-41
2023/04/25 06:58:49;;;;;;;;;;;13.30;69.00;;;;;;4992563;28;87360;-40
2023/04/25 07:01:14;;;;;;;;;;;13.20;69.00;;;;;;4991141;28;88713;-41
2023/04/25 07:03:40;;;;;;;;;;;13.20;68.90;;;;;;4991075;28;87125;-41
2023/04/25 07:06:05;;;;;;;;;;;13.20;69.00;;;;;;4995438;28;88852;-41
2023/04/25 07:08:31;;;;;;;;;;;13.20;69.00;;;;;;4989604;28;87498;-41
2023/04/25 07:10:56;;;;;;;;;;;13.30;69.00;;;;;;4989921;28;89012;-41
2023/04/25 07:13:22;;;;;;;;;;;13.20;69.00;;;;;;4991417;28;88959;-41
2023/04/25 07:15:48;;;;;;;;;;;13.30;69.10;;;;;;4990925;28;87106;-41
2023/04/25 07:18:14;;;;;;;;;;;13.30;69.10;;;;;;4991105;28;88763;-40
2023/04/25 07:20:39;;;;;;;;;;;13.30;69.10;;;;;;4991894;28;89021;-40
2023/04/25 07:23:05;;;;;;;;;;;13.20;69.00;;;;;;4990353;28;87133;-41
2023/04/25 07:25:31;;;;;;;;;;;13.20;69.10;;;;;;4992926;28;87893;-41
2023/04/25 07:27:56;;;;;;;;;;;13.20;69.70;;;;;;4992887;28;89170;-41
2023/04/25 07:30:22;;;;;;;;;;;13.30;69.10;;;;;;4990461;28;87353;-41
2023/04/25 07:32:48;;;;;;;;;;;13.20;69.00;;;;;;4991216;28;89495;-40
2023/04/25 07:35:13;;;;;;;;;;;13.30;69.10;;;;;;4991997;28;87510;-41
2023/04/25 07:37:39;;;;;;;;;;;13.30;69.10;;;;;;4989924;28;88055;-40
2023/04/25 07:40:05;;;;;;;;;;;13.30;69.70;;;;;;4991852;28;89324;-40
2023/04/25 07:42:30;;;;;;;;;;;13.30;69.10;;;;;;4989967;28;87063;-40
2023/04/25 07:44:56;;;;;;;;;;;13.30;69.10;;;;;;4992409;28;87484;-40
2023/04/25 07:47:22;;;;;;;;;;;13.30;69.10;;;;;;4990508;28;90154;-40
2023/04/25 07:49:47;;;;;;;;;;;13.30;69.00;;;;;;4993066;28;87358;-40
2023/04/25 07:52:13;;;;;;;;;;;13.30;69.00;;;;;;4992006;28;88198;-40
2023/04/25 07:54:38;;;;;;;;;;;13.30;68.90;;;;;;4989647;28;86742;-40
2023/04/25 07:57:06;;;;;;;;;;;13.30;69.00;;;;;;4992630;28;88905;-41
2023/04/25 07:59:32;;;;;;;;;;;13.30;69.00;;;;;;4989727;28;88014;-40
2023/04/25 08:01:57;;;;;;;;;;;13.40;69.00;;;;;;4990333;28;88457;-41
2023/04/25 08:04:23;;;;;;;;;;;13.40;69.00;;;;;;4991375;28;88171;-41
2023/04/25 08:06:49;;;;;;;;;;;13.30;69.00;;;;;;4989657;28;88340;-41
2023/04/25 08:09:15;;;;;;;;;;;13.30;69.10;;;;;;4995166;28;87603;-41
2023/04/25 08:11:41;;;;;;;;;;;13.30;69.10;;;;;;4988922;28;87960;-40
2023/04/25 08:14:07;;;;;;;;;;;13.30;69.20;;;;;;4991853;28;87474;-41
2023/04/25 08:16:32;;;;;;;;;;;13.30;69.20;;;;;;4990760;28;88921;-41
2023/04/25 08:18:59;;;;;;;;;;;13.30;69.20;;;;;;4990569;28;89415;-41
2023/04/25 08:21:25;;;;;;;;;;;13.30;69.20;;;;;;4991747;28;87259;-40
2023/04/25 08:23:50;;;;;;;;;;;13.40;69.10;;;;;;4989246;28;88077;-40
2023/04/25 08:26:16;;;;;;;;;;;13.40;69.20;;;;;;4991850;28;90273;-40
2023/04/25 08:28:41;;;;;;;;;;;13.30;69.10;;;;;;4991276;28;87013;-40
2023/04/25 08:31:07;;;;;;;;;;;13.40;69.10;;;;;;4992749;28;88980;-40
2023/04/25 08:33:33;;;;;;;;;;;13.40;69.00;;;;;;4990459;28;87460;-40
2023/04/25 08:35:58;;;;;;;;;;;13.40;69.00;;;;;;4991566;28;88625;-41
2023/04/25 08:38:24;;;;;;;;;;;13.40;69.00;;;;;;4988596;28;89581;-40
2023/04/25 08:40:53;;;;;;;;;;;13.40;69.00;;;;;;4992358;28;87387;-41
2023/04/25 08:43:19;;;;;;;;;;;13.40;69.00;;;;;;4990897;28;87453;-40
2023/04/25 08:45:46;;;;;;;;;;;13.40;69.00;;;;;;4990311;28;89510;-40
2023/04/25 08:48:12;;;;;;;;;;;13.40;69.00;;;;;;4991021;28;87105;-40
2023/04/25 08:51:04;;;;;;;;;;;13.40;69.00;;;;;;4988183;28;88774;-40
2023/04/25 08:53:30;;;;;;;;;;;13.40;69.00;;;;;;4995148;28;88764;-40
2023/04/25 08:55:56;;;;;;;;;;;13.40;68.90;;;;;;4992390;28;88799;-41
2023/04/25 08:58:23;;;;;;;;;;;13.50;69.00;;;;;;4994486;28;89498;-40
2023/04/25 09:00:49;;;;;;;;;;;13.40;69.10;;;;;;4993122;28;87458;-40
2023/04/25 09:03:15;;;;;;;;;;;13.40;68.90;;;;;;4992661;28;88902;-41
2023/04/25 09:05:41;;;;;;;;;;;13.40;69.10;;;;;;4994274;28;88417;-40
2023/04/25 09:08:07;;;;;;;;;;;13.40;69.00;;;;;;4992418;28;86427;-40
2023/04/25 09:10:32;;;;;;;;;;;13.40;69.20;;;;;;4995076;28;88053;-41
2023/04/25 09:13:08;;;;;;;;;;;13.40;69.20;;;;;;4992741;28;88000;-40
2023/04/25 09:15:47;;;;;;;;;;;13.40;69.30;;;;;;4993413;28;88041;-40
2023/04/25 09:18:12;;;;;;;;;;;13.40;69.30;;;;;;4992690;28;88149;-41
2023/04/25 09:20:41;;;;;;;;;;;13.40;69.30;;;;;;4993164;28;87010;-40
2023/04/25 09:23:07;;;;;;;;;;;13.40;69.40;;;;;;4994792;28;88768;-41
2023/04/25 09:25:39;;;;;;;;;;;13.40;69.40;;;;;;4991062;28;89382;-40
2023/04/25 09:28:05;;;;;;;;;;;13.40;69.30;;;;;;4992926;28;87082;-40
2023/04/25 09:30:31;;;;;;;;;;;13.50;69.50;;;;;;4993472;28;88840;-41
2023/04/25 09:33:03;;;;;;;;;;;13.40;69.40;;;;;;4992426;28;87292;-40
2023/04/25 09:35:28;;;;;;;;;;;13.40;69.50;;;;;;4992203;28;87025;-40
2023/04/25 09:37:54;;;;;;;;;;;13.40;69.50;;;;;;4996424;28;89272;-41
2023/04/25 09:40:20;;;;;;;;;;;13.40;69.50;;;;;;4991615;28;88054;-40
2023/04/25 09:42:45;;;;;;;;;;;13.40;69.40;;;;;;4992449;28;89729;-40
2023/04/25 09:45:12;;;;;;;;;;;13.40;69.50;;;;;;4993606;28;87092;-40
2023/04/25 09:47:38;;;;;;;;;;;13.40;69.50;;;;;;4990877;28;87148;-41
2023/04/25 09:50:13;;;;;;;;;;;13.40;69.50;;;;;;4993462;28;88668;-40
2023/04/25 09:52:38;;;;;;;;;;;13.40;69.40;;;;;;4993180;28;89360;-41
2023/04/25 09:55:05;;;;;;;;;;;13.40;69.40;;;;;;4991926;28;87272;-41
2023/04/25 09:57:31;;;;;;;;;;;13.50;69.40;;;;;;4997171;28;89135;-41
2023/04/25 09:59:59;;;;;;;;;;;13.50;69.50;;;;;;4991770;28;87136;-40
2023/04/25 10:02:26;;;;;;;;;;;13.50;69.50;;;;;;4993145;28;88801;-41
2023/04/25 10:04:54;;;;;;;;;;;13.50;69.50;;;;;;4991355;28;89814;-40
2023/04/25 10:07:21;;;;;;;;;;;13.50;69.50;;;;;;4991170;28;87077;-40
2023/04/25 10:09:47;;;;;;;;;;;13.50;69.50;;;;;;4994066;28;89171;-40
2023/04/25 10:12:13;;;;;;;;;;;13.50;69.50;;;;;;4990702;28;89220;-41
2023/04/25 10:14:39;;;;;;;;;;;13.50;69.60;;;;;;4991399;28;87223;-40
2023/04/25 10:17:05;;;;;;;;;;;13.50;69.60;;;;;;4992369;28;89118;-40
2023/04/25 10:19:31;;;;;;;;;;;13.50;69.60;;;;;;4993767;28;89278;-40
2023/04/25 10:21:57;;;;;;;;;;;13.50;69.60;;;;;;4994513;28;86586;-40
2023/04/25 10:24:22;;;;;;;;;;;13.50;69.60;;;;;;4990325;28;89354;-40
2023/04/25 10:26:48;;;;;;;;;;;13.50;69.60;;;;;;4993280;28;87605;-40
2023/04/25 10:29:21;;;;;;;;;;;13.50;69.60;;;;;;4991177;28;88488;-41
2023/04/25 10:31:47;;;;;;;;;;;13.50;69.60;;;;;;4991057;28;87806;-40
2023/04/25 10:34:12;;;;;;;;;;;13.50;69.60;;;;;;4989722;28;87345;-41
2023/04/25 10:36:38;;;;;;;;;;;13.50;69.60;;;;;;4993644;28;89055;-40
2023/04/25 10:39:08;;;;;;;;;;;13.50;69.60;;;;;;4990651;28;88043;-41
2023/04/25 10:41:54;;;;;;;;;;;13.50;69.50;;;;;;4994620;28;86979;-40
2023/04/25 10:44:20;;;;;;;;;;;13.60;69.60;;;;;;4991116;28;89633;-41
2023/04/25 10:46:45;;;;;;;;;;;13.50;69.50;;;;;;4992785;28;86778;-40
2023/04/25 10:49:27;;;;;;;;;;;13.50;69.50;;;;;;4992704;28;87986;-41
2023/04/25 10:52:10;;;;;;;;;;;13.60;69.60;;;;;;4991234;28;89917;-40
2023/04/25 10:54:39;;;;;;;;;;;13.60;69.50;;;;;;4990593;28;87969;-41
2023/04/25 10:57:05;;;;;;;;;;;13.60;69.60;;;;;;4992181;28;89484;-41
2023/04/25 10:59:30;;;;;;;;;;;13.60;69.60;;;;;;4991802;28;88702;-40
2023/04/25 11:01:56;;;;;;;;;;;13.60;69.50;;;;;;4990986;28;87665;-41
2023/04/25 11:04:23;;;;;;;;;;;13.60;69.60;;;;;;4995698;28;87369;-41
2023/04/25 11:07:02;;;;;;;;;;;13.60;69.60;;;;;;4990271;28;87184;-41
2023/04/25 11:09:28;;;;;;;;;;;13.70;69.50;;;;;;4990702;28;89261;-40
2023/04/25 11:11:55;;;;;;;;;;;13.60;69.60;;;;;;4993625;28;87235;-40
2023/04/25 11:14:20;;;;;;;;;;;13.70;69.50;;;;;;4989590;28;87461;-40
2023/04/25 11:16:46;;;;;;;;;;;13.70;69.50;;;;;;4991158;28;88136;-40
2023/04/25 11:19:11;;;;;;;;;;;13.70;69.60;;;;;;4989786;28;90362;-40
2023/04/25 11:21:37;;;;;;;;;;;13.60;69.60;;;;;;4991029;28;87130;-40
2023/04/25 11:24:02;;;;;;;;;;;13.60;69.50;;;;;;4991558;28;87602;-41
2023/04/25 11:26:30;;;;;;;;;;;13.70;69.50;;;;;;4991960;28;89807;-40
2023/04/25 11:29:02;;;;;;;;;;;13.60;69.70;;;;;;4989860;28;88672;-41
2023/04/25 11:31:28;;;;;;;;;;;13.60;69.90;;;;;;4990375;28;89286;-41
2023/04/25 11:33:56;;;;;;;;;;;13.60;70.00;;;;;;4992120;28;87178;-41
2023/04/25 11:36:22;;;;;;;;;;;13.60;69.70;;;;;;4989782;28;89003;-41
2023/04/25 11:38:48;;;;;;;;;;;13.60;69.70;;;;;;4992194;28;87990;-41
2023/04/25 11:41:13;;;;;;;;;;;13.60;69.70;;;;;;4990214;28;87128;-41
2023/04/25 11:43:39;;;;;;;;;;;13.60;69.70;;;;;;4990901;28;89081;-41
2023/04/25 11:46:07;;;;;;;;;;;13.70;69.70;;;;;;4991219;28;89882;-41
2023/04/25 11:48:39;;;;;;;;;;;13.70;69.70;;;;;;4993057;28;87166;-45
2023/04/25 11:51:05;;;;;;;;;;;13.70;69.70;;;;;;4989541;28;89276;-41
2023/04/25 11:53:30;;;;;;;;;;;13.70;69.70;;;;;;4991707;28;87179;-41
2023/04/25 11:55:56;;;;;;;;;;;13.70;69.70;;;;;;4991269;28;87487;-41
2023/04/25 11:58:21;;;;;;;;;;;13.70;69.70;;;;;;4990194;28;89521;-41
2023/04/25 12:00:47;;;;;;;;;;;13.70;69.70;;;;;;4992481;28;86457;-41
2023/04/25 12:03:12;;;;;;;;;;;13.80;69.70;;;;;;4989514;28;87096;-41
2023/04/25 12:05:39;;;;;;;;;;;13.80;69.70;;;;;;4991779;28;89512;-40
2023/04/25 12:08:11;;;;;;;;;;;13.80;69.70;;;;;;4992642;28;88025;-41
2023/04/25 12:10:38;;;;;;;;;;;13.80;69.60;;;;;;4989268;28;89182;-41
2023/04/25 12:13:17;;;;;;;;;;;13.80;69.70;;;;;;4992397;28;87192;-41
2023/04/25 12:15:43;;;;;;;;;;;13.80;69.70;;;;;;4990589;28;88659;-41
2023/04/25 12:18:08;;;;;;;;;;;13.80;69.70;;;;;;4989388;28;89655;-41
2023/04/25 12:20:35;;;;;;;;;;;13.90;69.70;;;;;;4992130;28;87229;-41
2023/04/25 12:23:05;;;;;;;;;;;13.90;69.60;;;;;;4988680;28;87955;-41
2023/04/25 12:25:33;;;;;;;;;;;13.90;69.60;;;;;;4991054;28;89133;-41
2023/04/25 12:28:12;;;;;;;;;;;13.90;69.60;;;;;;4993866;28;87509;-41
2023/04/25 12:30:56;;;;;;;;;;;13.90;69.70;;;;;;4995641;28;88886;-41
2023/04/25 12:33:22;;;;;;;;;;;13.90;69.70;;;;;;4991503;28;88128;-41
2023/04/25 12:35:47;;;;;;;;;;;13.90;69.70;;;;;;4995025;28;90133;-41
2023/04/25 12:38:34;;;;;;;;;;;13.90;69.60;;;;;;4993411;28;88127;-41
2023/04/25 12:40:59;;;;;;;;;;;13.90;69.60;;;;;;4995092;28;87240;-41
2023/04/25 12:43:25;;;;;;;;;;;13.90;69.70;;;;;;4994455;28;88852;-41
2023/04/25 12:45:52;;;;;;;;;;;13.90;69.70;;;;;;4994144;28;88461;-41
2023/04/25 12:48:17;;;;;;;;;;;14.00;69.70;;;;;;4992741;28;86992;-41
2023/04/25 12:50:43;;;;;;;;;;;14.00;69.60;;;;;;4995853;28;88540;-41
2023/04/25 12:53:09;;;;;;;;;;;14.00;69.60;;;;;;4994931;28;89120;-41
2023/04/25 12:55:35;;;;;;;;;;;14.00;69.60;;;;;;4995123;28;87241;-41
2023/04/25 12:58:00;;;;;;;;;;;14.00;69.60;;;;;;4991137;28;92210;-41
2023/04/25 13:00:26;;;;;;;;;;;14.00;69.60;;;;;;4993483;28;87006;-41
2023/04/25 13:02:51;;;;;;;;;;;14.00;69.70;;;;;;4994830;28;88907;-41
2023/04/25 13:05:17;;;;;;;;;;;14.00;69.70;;;;;;4991867;28;89235;-41
2023/04/25 13:07:42;;;;;;;;;;;14.00;69.70;;;;;;4991513;28;87614;-41
2023/04/25 13:10:08;;;;;;;;;;;14.00;69.70;;;;;;4994921;28;87421;-41
2023/04/25 13:12:34;;;;;;;;;;;14.00;69.70;;;;;;4992159;28;89542;-41
2023/04/25 13:14:59;;;;;;;;;;;14.00;69.80;;;;;;4996491;28;86335;-41
2023/04/25 13:17:25;;;;;;;;;;;13.90;69.80;;;;;;4993276;28;89292;-41
2023/04/25 13:19:50;;;;;;;;;;;13.90;69.80;;;;;;4992037;28;87206;-40
2023/04/25 13:22:16;;;;;;;;;;;13.90;70.40;;;;;;4994063;28;88944;-41
2023/04/25 13:24:42;;;;;;;;;;;13.90;69.80;;;;;;4991117;28;89362;-41
2023/04/25 13:27:08;;;;;;;;;;;13.90;69.80;;;;;;4994053;28;87444;-41
2023/04/25 13:29:35;;;;;;;;;;;13.90;69.80;;;;;;4992916;28;87574;-41
2023/04/25 13:32:01;;;;;;;;;;;13.90;69.80;;;;;;4992301;28;89524;-41
2023/04/25 13:34:27;;;;;;;;;;;13.90;69.80;;;;;;4994476;28;87314;-41
2023/04/25 13:36:53;;;;;;;;;;;13.90;69.70;;;;;;4993897;28;87765;-41
2023/04/25 13:39:18;;;;;;;;;;;14.00;69.80;;;;;;4993897;28;86287;-41
2023/04/25 13:41:44;;;;;;;;;;;14.00;69.80;;;;;;4992132;28;87356;-41
2023/04/25 13:44:10;;;;;;;;;;;14.00;69.70;;;;;;4992701;28;89459;-41
2023/04/25 13:46:37;;;;;;;;;;;14.00;69.80;;;;;;4992957;28;88118;-41
2023/04/25 13:49:02;;;;;;;;;;;14.00;69.80;;;;;;4991412;28;89842;-41
2023/04/25 13:51:28;;;;;;;;;;;14.10;69.80;;;;;;4994047;28;88000;-41
2023/04/25 13:53:54;;;;;;;;;;;14.10;69.70;;;;;;4991480;28;87161;-41
2023/04/25 13:56:20;;;;;;;;;;;14.10;69.70;;;;;;4993540;28;88570;-41
2023/04/25 13:58:45;;;;;;;;;;;14.00;69.70;;;;;;4995513;28;87113;-41
2023/04/25 14:01:11;;;;;;;;;;;14.10;69.80;;;;;;4992087;28;88827;-41
2023/04/25 14:03:36;;;;;;;;;;;14.10;70.40;;;;;;4994032;28;88898;-41
2023/04/25 14:06:02;;;;;;;;;;;14.10;69.90;;;;;;4991370;28;87238;-41
2023/04/25 14:08:28;;;;;;;;;;;14.10;69.80;;;;;;4990801;28;88822;-41
2023/04/25 14:10:54;;;;;;;;;;;14.10;69.70;;;;;;4992599;28;89485;-40